sensor_id;sensor_type;location;lat;lon;timestamp;temperature;humidity
40676;DHT22;26359;48.750;9.314;2024-01-10T00:01:07;-2.60;99.90
40676;DHT22;26359;48.750;9.314;2024-01-10T00:03:33;-2.60;99.90
40676;DHT22;26359;48.750;9.314;2024-01-10T00:05:58;-2.60;99.90
40676;DHT22;26359;48.750;9.314;2024-01-10T00:08:24;-2.60;99.90
40676;DHT22;26359;48.750;9.314;2024-01-10T00:10:51;-2.60;99.90
40676;DHT22;26359;48.750;9.314;2024-01-10T00:13:17;-2.60;99.90
40676;DHT22;26359;48.750;9.314;2024-01-10T00:15:43;-2.60;99.90
40676;DHT22;26359;48.750;9.314;2024-01-10T00:18:08;-2.60;99.90
40676;DHT22;26359;48.750;9.314;2024-01-10T00:20:34;-2.60;99.90
40676;DHT22;26359;48.750;9.314;2024-01-10T00:22:59;-2.50;99.90
40676;DHT22;26359;48.750;9.314;2024-01-10T00:25:25;-2.50;99.90
40676;DHT22;26359;48.750;9.314;2024-01-10T00:27:50;-2.50;99.90
40676;DHT22;26359;48.750;9.314;2024-01-10T00:30:16;-2.70;99.90
40676;DHT22;26359;48.750;9.314;2024-01-10T00:32:41;-2.60;99.90
40676;DHT22;26359;48.750;9.314;2024-01-10T00:35:07;-2.70;99.90
40676;DHT22;26359;48.750;9.314;2024-01-10T00:37:33;-2.70;99.90
40676;DHT22;26359;48.750;9.314;2024-01-10T00:39:58;-2.70;99.90
40676;DHT22;26359;48.750;9.314;2024-01-10T00:42:23;-2.80;99.90
40676;DHT22;26359;48.750;9.314;2024-01-10T00:44:49;-2.80;99.90
40676;DHT22;26359;48.750;9.314;2024-01-10T00:47:14;-2.80;99.90
40676;DHT22;26359;48.750;9.314;2024-01-10T00:49:40;-2.90;99.90
40676;DHT22;26359;48.750;9.314;2024-01-10T00:52:05;-2.90;99.90
40676;DHT22;26359;48.750;9.314;2024-01-10T00:54:31;-2.80;99.90
40676;DHT22;26359;48.750;9.314;2024-01-10T00:56:56;-2.80;99.90
40676;DHT22;26359;48.750;9.314;2024-01-10T00:59:22;-2.80;99.90
40676;DHT22;26359;48.750;9.314;2024-01-10T01:01:47;-2.80;99.90
40676;DHT22;26359;48.750;9.314;2024-01-10T01:04:13;-2.70;99.90
40676;DHT22;26359;48.750;9.314;2024-01-10T01:06:39;-2.70;99.90
40676;DHT22;26359;48.750;9.314;2024-01-10T01:09:04;-2.70;99.90
40676;DHT22;26359;48.750;9.314;2024-01-10T01:11:29;-2.60;99.90
40676;DHT22;26359;48.750;9.314;2024-01-10T01:13:55;-2.60;99.90
40676;DHT22;26359;48.750;9.314;2024-01-10T01:16:20;-2.60;99.90
40676;DHT22;26359;48.750;9.314;2024-01-10T01:18:46;-2.70;99.90
40676;DHT22;26359;48.750;9.314;2024-01-10T01:21:12;-2.70;99.90
40676;DHT22;26359;48.750;9.314;2024-01-10T01:23:37;-2.70;99.90
40676;DHT22;26359;48.750;9.314;2024-01-10T01:26:03;-2.60;99.90
40676;DHT22;26359;48.750;9.314;2024-01-10T01:28:29;-2.60;99.90
40676;DHT22;26359;48.750;9.314;2024-01-10T01:30:55;-2.60;99.90
40676;DHT22;26359;48.750;9.314;2024-01-10T01:33:20;-2.60;99.90
40676;DHT22;26359;48.750;9.314;2024-01-10T01:35:46;-2.60;99.90
40676;DHT22;26359;48.750;9.314;2024-01-10T01:38:11;-2.60;99.90
40676;DHT22;26359;48.750;9.314;2024-01-10T01:40:37;-2.60;99.90
40676;DHT22;26359;48.750;9.314;2024-01-10T01:43:21;-2.60;99.90
40676;DHT22;26359;48.750;9.314;2024-01-10T01:45:47;-2.60;99.90
40676;DHT22;26359;48.750;9.314;2024-01-10T01:48:15;-2.60;99.90
40676;DHT22;26359;48.750;9.314;2024-01-10T01:50:41;-2.60;99.90
40676;DHT22;26359;48.750;9.314;2024-01-10T01:53:06;-2.70;99.90
40676;DHT22;26359;48.750;9.314;2024-01-10T01:55:33;-2.60;99.90
40676;DHT22;26359;48.750;9.314;2024-01-10T01:57:58;-2.70;99.90
40676;DHT22;26359;48.750;9.314;2024-01-10T02:00:24;-2.60;99.90
40676;DHT22;26359;48.750;9.314;2024-01-10T02:02:50;-2.60;99.90
40676;DHT22;26359;48.750;9.314;2024-01-10T02:05:15;-2.60;99.90
40676;DHT22;26359;48.750;9.314;2024-01-10T02:07:41;-2.80;99.90
40676;DHT22;26359;48.750;9.314;2024-01-10T02:10:07;-2.90;99.90
40676;DHT22;26359;48.750;9.314;2024-01-10T02:12:32;-2.90;99.90
40676;DHT22;26359;48.750;9.314;2024-01-10T02:14:59;-2.90;99.90
40676;DHT22;26359;48.750;9.314;2024-01-10T02:17:25;-2.90;99.90
40676;DHT22;26359;48.750;9.314;2024-01-10T02:20:16;-3.00;99.90
40676;DHT22;26359;48.750;9.314;2024-01-10T02:22:47;-2.90;99.90
40676;DHT22;26359;48.750;9.314;2024-01-10T02:25:13;-2.90;99.90
40676;DHT22;26359;48.750;9.314;2024-01-10T02:27:40;-2.90;99.90
40676;DHT22;26359;48.750;9.314;2024-01-10T02:30:07;-2.80;99.90
40676;DHT22;26359;48.750;9.314;2024-01-10T02:32:34;-2.80;99.90
40676;DHT22;26359;48.750;9.314;2024-01-10T02:35:00;-2.80;99.90
40676;DHT22;26359;48.750;9.314;2024-01-10T02:37:26;-2.80;99.90
40676;DHT22;26359;48.750;9.314;2024-01-10T02:39:52;-2.90;99.90
40676;DHT22;26359;48.750;9.314;2024-01-10T02:42:17;-3.00;99.90
40676;DHT22;26359;48.750;9.314;2024-01-10T02:44:43;-3.00;99.90
40676;DHT22;26359;48.750;9.314;2024-01-10T02:47:09;-2.90;99.90
40676;DHT22;26359;48.750;9.314;2024-01-10T02:49:35;-3.00;99.90
40676;DHT22;26359;48.750;9.314;2024-01-10T02:52:01;-2.90;99.90
40676;DHT22;26359;48.750;9.314;2024-01-10T02:54:26;-2.90;99.90
40676;DHT22;26359;48.750;9.314;2024-01-10T02:56:52;-2.90;99.90
40676;DHT22;26359;48.750;9.314;2024-01-10T02:59:17;-2.90;99.90
40676;DHT22;26359;48.750;9.314;2024-01-10T03:01:43;-2.80;99.90
40676;DHT22;26359;48.750;9.314;2024-01-10T03:04:09;-2.80;99.90
40676;DHT22;26359;48.750;9.314;2024-01-10T03:06:34;-2.70;99.90
40676;DHT22;26359;48.750;9.314;2024-01-10T03:09:00;-2.70;99.90
40676;DHT22;26359;48.750;9.314;2024-01-10T03:11:25;-2.70;99.90
40676;DHT22;26359;48.750;9.314;2024-01-10T03:14:00;-2.60;99.90
40676;DHT22;26359;48.750;9.314;2024-01-10T03:16:26;-2.60;99.90
40676;DHT22;26359;48.750;9.314;2024-01-10T03:18:51;-2.60;99.90
40676;DHT22;26359;48.750;9.314;2024-01-10T03:21:17;-2.60;99.90
40676;DHT22;26359;48.750;9.314;2024-01-10T03:23:48;-2.70;99.90
40676;DHT22;26359;48.750;9.314;2024-01-10T03:26:14;-2.70;99.90
40676;DHT22;26359;48.750;9.314;2024-01-10T03:28:39;-2.60;99.90
40676;DHT22;26359;48.750;9.314;2024-01-10T03:31:05;-2.60;99.90
40676;DHT22;26359;48.750;9.314;2024-01-10T03:33:30;-2.60;99.90
40676;DHT22;26359;48.750;9.314;2024-01-10T03:35:56;-2.60;99.90
40676;DHT22;26359;48.750;9.314;2024-01-10T03:38:21;-2.60;99.90
40676;DHT22;26359;48.750;9.314;2024-01-10T03:40:47;-2.60;99.90
40676;DHT22;26359;48.750;9.314;2024-01-10T03:43:13;-2.60;99.90
40676;DHT22;26359;48.750;9.314;2024-01-10T03:45:39;-2.60;99.90
40676;DHT22;26359;48.750;9.314;2024-01-10T03:48:05;-2.70;99.90
40676;DHT22;26359;48.750;9.314;2024-01-10T03:50:31;-2.60;99.90
40676;DHT22;26359;48.750;9.314;2024-01-10T03:52:56;-2.70;99.90
40676;DHT22;26359;48.750;9.314;2024-01-10T03:55:22;-2.70;99.90
40676;DHT22;26359;48.750;9.314;2024-01-10T03:57:47;-2.60;99.90
40676;DHT22;26359;48.750;9.314;2024-01-10T04:00:13;-2.60;99.90
40676;DHT22;26359;48.750;9.314;2024-01-10T04:02:38;-2.60;99.90
40676;DHT22;26359;48.750;9.314;2024-01-10T04:05:10;-2.60;99.90
40676;DHT22;26359;48.750;9.314;2024-01-10T04:07:40;-2.60;99.90
40676;DHT22;26359;48.750;9.314;2024-01-10T04:10:07;-2.60;99.90
40676;DHT22;26359;48.750;9.314;2024-01-10T04:12:36;-2.50;99.90
40676;DHT22;26359;48.750;9.314;2024-01-10T04:15:01;-2.50;99.90
40676;DHT22;26359;48.750;9.314;2024-01-10T04:17:27;-2.60;99.90
40676;DHT22;26359;48.750;9.314;2024-01-10T04:19:52;-2.50;99.90
40676;DHT22;26359;48.750;9.314;2024-01-10T04:22:18;-2.50;99.90
40676;DHT22;26359;48.750;9.314;2024-01-10T04:24:44;-2.50;99.90
40676;DHT22;26359;48.750;9.314;2024-01-10T04:27:09;-2.50;99.90
40676;DHT22;26359;48.750;9.314;2024-01-10T04:29:35;-2.40;99.90
40676;DHT22;26359;48.750;9.314;2024-01-10T04:32:00;-2.40;99.90
40676;DHT22;26359;48.750;9.314;2024-01-10T04:34:26;-2.50;99.90
40676;DHT22;26359;48.750;9.314;2024-01-10T04:36:51;-2.60;99.90
40676;DHT22;26359;48.750;9.314;2024-01-10T04:39:17;-2.60;99.90
40676;DHT22;26359;48.750;9.314;2024-01-10T04:41:42;-2.50;99.90
40676;DHT22;26359;48.750;9.314;2024-01-10T04:44:08;-2.50;99.90
40676;DHT22;26359;48.750;9.314;2024-01-10T04:46:33;-2.50;99.90
40676;DHT22;26359;48.750;9.314;2024-01-10T04:48:59;-2.50;99.90
40676;DHT22;26359;48.750;9.314;2024-01-10T04:51:24;-2.50;99.90
40676;DHT22;26359;48.750;9.314;2024-01-10T04:53:50;-2.50;99.90
40676;DHT22;26359;48.750;9.314;2024-01-10T04:56:16;-2.50;99.90
40676;DHT22;26359;48.750;9.314;2024-01-10T04:58:41;-2.50;99.90
40676;DHT22;26359;48.750;9.314;2024-01-10T05:01:07;-2.50;99.90
40676;DHT22;26359;48.750;9.314;2024-01-10T05:03:32;-2.50;99.90
40676;DHT22;26359;48.750;9.314;2024-01-10T05:05:58;-2.60;99.90
40676;DHT22;26359;48.750;9.314;2024-01-10T05:08:23;-2.50;99.90
40676;DHT22;26359;48.750;9.314;2024-01-10T05:10:49;-2.60;99.90
40676;DHT22;26359;48.750;9.314;2024-01-10T05:13:14;-2.60;99.90
40676;DHT22;26359;48.750;9.314;2024-01-10T05:15:40;-2.50;99.90
40676;DHT22;26359;48.750;9.314;2024-01-10T05:18:06;-2.60;99.90
40676;DHT22;26359;48.750;9.314;2024-01-10T05:20:31;-2.60;99.90
40676;DHT22;26359;48.750;9.314;2024-01-10T05:22:57;-2.60;99.90
40676;DHT22;26359;48.750;9.314;2024-01-10T05:25:24;-2.60;99.90
40676;DHT22;26359;48.750;9.314;2024-01-10T05:27:50;-2.60;99.90
40676;DHT22;26359;48.750;9.314;2024-01-10T05:30:16;-2.60;99.90
40676;DHT22;26359;48.750;9.314;2024-01-10T05:32:43;-2.60;99.90
40676;DHT22;26359;48.750;9.314;2024-01-10T05:35:09;-2.60;99.90
40676;DHT22;26359;48.750;9.314;2024-01-10T05:37:35;-2.60;99.90
40676;DHT22;26359;48.750;9.314;2024-01-10T05:40:01;-2.60;99.90
40676;DHT22;26359;48.750;9.314;2024-01-10T05:42:27;-2.60;99.90
40676;DHT22;26359;48.750;9.314;2024-01-10T05:44:53;-2.60;99.90
40676;DHT22;26359;48.750;9.314;2024-01-10T05:47:18;-2.70;99.90
40676;DHT22;26359;48.750;9.314;2024-01-10T05:49:44;-2.60;99.90
40676;DHT22;26359;48.750;9.314;2024-01-10T05:52:09;-2.60;99.90
40676;DHT22;26359;48.750;9.314;2024-01-10T05:54:35;-2.60;99.90
40676;DHT22;26359;48.750;9.314;2024-01-10T05:57:00;-2.60;99.90
40676;DHT22;26359;48.750;9.314;2024-01-10T05:59:26;-2.60;99.90
40676;DHT22;26359;48.750;9.314;2024-01-10T06:01:52;-2.60;99.90
40676;DHT22;26359;48.750;9.314;2024-01-10T06:04:17;-2.50;99.90
40676;DHT22;26359;48.750;9.314;2024-01-10T06:06:43;-2.50;99.90
40676;DHT22;26359;48.750;9.314;2024-01-10T06:09:10;-2.50;99.90
40676;DHT22;26359;48.750;9.314;2024-01-10T06:11:43;-2.40;99.90
40676;DHT22;26359;48.750;9.314;2024-01-10T06:14:09;-2.40;99.90
40676;DHT22;26359;48.750;9.314;2024-01-10T06:16:34;-2.40;99.90
40676;DHT22;26359;48.750;9.314;2024-01-10T06:19:00;-2.40;99.90
40676;DHT22;26359;48.750;9.314;2024-01-10T06:21:26;-2.50;99.90
40676;DHT22;26359;48.750;9.314;2024-01-10T06:23:51;-2.50;99.90
40676;DHT22;26359;48.750;9.314;2024-01-10T06:26:17;-2.60;99.90
40676;DHT22;26359;48.750;9.314;2024-01-10T06:28:42;-2.60;99.90
40676;DHT22;26359;48.750;9.314;2024-01-10T06:31:08;-2.70;99.90
40676;DHT22;26359;48.750;9.314;2024-01-10T06:33:34;-2.60;99.90
40676;DHT22;26359;48.750;9.314;2024-01-10T06:35:59;-2.60;99.90
40676;DHT22;26359;48.750;9.314;2024-01-10T06:38:25;-2.60;99.90
40676;DHT22;26359;48.750;9.314;2024-01-10T06:40:51;-2.70;99.90
40676;DHT22;26359;48.750;9.314;2024-01-10T06:43:16;-2.70;99.90
40676;DHT22;26359;48.750;9.314;2024-01-10T06:45:42;-2.80;99.90
40676;DHT22;26359;48.750;9.314;2024-01-10T06:48:07;-2.70;99.90
40676;DHT22;26359;48.750;9.314;2024-01-10T06:50:33;-2.80;99.90
40676;DHT22;26359;48.750;9.314;2024-01-10T06:52:59;-2.70;99.90
40676;DHT22;26359;48.750;9.314;2024-01-10T06:55:24;-2.80;99.90
40676;DHT22;26359;48.750;9.314;2024-01-10T06:57:50;-2.80;99.90
40676;DHT22;26359;48.750;9.314;2024-01-10T07:00:19;-2.80;99.90
40676;DHT22;26359;48.750;9.314;2024-01-10T07:02:45;-2.80;99.90
40676;DHT22;26359;48.750;9.314;2024-01-10T07:05:10;-2.80;99.90
40676;DHT22;26359;48.750;9.314;2024-01-10T07:07:36;-2.80;99.90
40676;DHT22;26359;48.750;9.314;2024-01-10T07:10:02;-2.80;99.90
40676;DHT22;26359;48.750;9.314;2024-01-10T07:12:34;-2.90;99.90
40676;DHT22;26359;48.750;9.314;2024-01-10T07:14:59;-2.80;99.90
40676;DHT22;26359;48.750;9.314;2024-01-10T07:17:25;-2.80;99.90
40676;DHT22;26359;48.750;9.314;2024-01-10T07:19:51;-2.80;99.90
40676;DHT22;26359;48.750;9.314;2024-01-10T07:22:16;-2.80;99.90
40676;DHT22;26359;48.750;9.314;2024-01-10T07:24:45;-2.90;99.90
40676;DHT22;26359;48.750;9.314;2024-01-10T07:27:11;-2.90;99.90
40676;DHT22;26359;48.750;9.314;2024-01-10T07:29:40;-2.80;99.90
40676;DHT22;26359;48.750;9.314;2024-01-10T07:32:06;-2.70;99.90
40676;DHT22;26359;48.750;9.314;2024-01-10T07:34:35;-2.80;99.90
40676;DHT22;26359;48.750;9.314;2024-01-10T07:37:00;-2.80;99.90
40676;DHT22;26359;48.750;9.314;2024-01-10T07:39:26;-2.80;99.90
40676;DHT22;26359;48.750;9.314;2024-01-10T07:41:51;-2.80;99.90
40676;DHT22;26359;48.750;9.314;2024-01-10T07:44:17;-2.90;99.90
40676;DHT22;26359;48.750;9.314;2024-01-10T07:46:42;-2.90;99.90
40676;DHT22;26359;48.750;9.314;2024-01-10T07:49:08;-2.80;99.90
40676;DHT22;26359;48.750;9.314;2024-01-10T07:51:33;-2.80;99.90
40676;DHT22;26359;48.750;9.314;2024-01-10T07:53:59;-2.70;99.90
40676;DHT22;26359;48.750;9.314;2024-01-10T07:56:25;-2.60;99.90
40676;DHT22;26359;48.750;9.314;2024-01-10T07:58:50;-2.50;99.90
40676;DHT22;26359;48.750;9.314;2024-01-10T08:01:17;-2.50;99.90
40676;DHT22;26359;48.750;9.314;2024-01-10T08:03:43;-2.40;99.90
40676;DHT22;26359;48.750;9.314;2024-01-10T08:06:08;-2.40;99.90
40676;DHT22;26359;48.750;9.314;2024-01-10T08:08:35;-2.40;99.90
40676;DHT22;26359;48.750;9.314;2024-01-10T08:11:01;-2.30;99.90
40676;DHT22;26359;48.750;9.314;2024-01-10T08:13:27;-2.30;99.90
40676;DHT22;26359;48.750;9.314;2024-01-10T08:15:53;-2.30;99.90
40676;DHT22;26359;48.750;9.314;2024-01-10T08:18:19;-2.30;99.90
40676;DHT22;26359;48.750;9.314;2024-01-10T08:20:45;-2.30;99.90
40676;DHT22;26359;48.750;9.314;2024-01-10T08:23:10;-2.30;99.90
40676;DHT22;26359;48.750;9.314;2024-01-10T08:25:36;-2.30;99.90
40676;DHT22;26359;48.750;9.314;2024-01-10T08:28:02;-2.30;99.90
40676;DHT22;26359;48.750;9.314;2024-01-10T08:30:27;-2.30;99.90
40676;DHT22;26359;48.750;9.314;2024-01-10T08:32:53;-2.20;99.90
40676;DHT22;26359;48.750;9.314;2024-01-10T08:35:18;-2.20;99.90
40676;DHT22;26359;48.750;9.314;2024-01-10T08:37:45;-2.20;99.90
40676;DHT22;26359;48.750;9.314;2024-01-10T08:40:12;-2.10;99.90
40676;DHT22;26359;48.750;9.314;2024-01-10T08:42:40;-2.10;99.90
40676;DHT22;26359;48.750;9.314;2024-01-10T08:45:06;-2.10;99.90
40676;DHT22;26359;48.750;9.314;2024-01-10T08:47:34;-2.10;99.90
40676;DHT22;26359;48.750;9.314;2024-01-10T08:50:01;-2.10;99.90
40676;DHT22;26359;48.750;9.314;2024-01-10T08:52:27;-2.10;99.90
40676;DHT22;26359;48.750;9.314;2024-01-10T08:54:52;-2.10;99.90
40676;DHT22;26359;48.750;9.314;2024-01-10T08:57:18;-1.90;99.90
40676;DHT22;26359;48.750;9.314;2024-01-10T08:59:44;-2.00;99.90
40676;DHT22;26359;48.750;9.314;2024-01-10T09:02:09;-2.00;99.90
40676;DHT22;26359;48.750;9.314;2024-01-10T09:04:35;-2.00;99.90
40676;DHT22;26359;48.750;9.314;2024-01-10T09:07:01;-2.00;99.90
40676;DHT22;26359;48.750;9.314;2024-01-10T09:09:27;-1.90;99.90
40676;DHT22;26359;48.750;9.314;2024-01-10T09:11:53;-1.60;99.90
40676;DHT22;26359;48.750;9.314;2024-01-10T09:14:18;-1.20;99.90
40676;DHT22;26359;48.750;9.314;2024-01-10T09:16:44;-0.90;99.90
40676;DHT22;26359;48.750;9.314;2024-01-10T09:19:10;-0.60;99.90
40676;DHT22;26359;48.750;9.314;2024-01-10T09:21:35;-0.30;99.90
40676;DHT22;26359;48.750;9.314;2024-01-10T09:24:02;0.00;99.90
40676;DHT22;26359;48.750;9.314;2024-01-10T09:26:30;0.20;99.90
40676;DHT22;26359;48.750;9.314;2024-01-10T09:28:56;0.50;99.90
40676;DHT22;26359;48.750;9.314;2024-01-10T09:31:21;0.70;99.90
40676;DHT22;26359;48.750;9.314;2024-01-10T09:33:47;0.70;99.90
40676;DHT22;26359;48.750;9.314;2024-01-10T09:36:12;0.50;99.90
40676;DHT22;26359;48.750;9.314;2024-01-10T09:38:39;0.40;99.90
40676;DHT22;26359;48.750;9.314;2024-01-10T09:41:05;0.40;99.90
40676;DHT22;26359;48.750;9.314;2024-01-10T09:43:31;0.50;99.90
40676;DHT22;26359;48.750;9.314;2024-01-10T09:45:58;0.70;99.90
40676;DHT22;26359;48.750;9.314;2024-01-10T09:48:25;0.60;99.90
40676;DHT22;26359;48.750;9.314;2024-01-10T09:50:51;0.90;99.90
40676;DHT22;26359;48.750;9.314;2024-01-10T09:53:26;1.00;99.90
40676;DHT22;26359;48.750;9.314;2024-01-10T09:55:52;1.10;99.90
40676;DHT22;26359;48.750;9.314;2024-01-10T09:58:23;1.20;99.90
40676;DHT22;26359;48.750;9.314;2024-01-10T10:00:48;1.20;99.90
40676;DHT22;26359;48.750;9.314;2024-01-10T10:03:14;1.30;99.90
40676;DHT22;26359;48.750;9.314;2024-01-10T10:05:42;1.40;99.90
40676;DHT22;26359;48.750;9.314;2024-01-10T10:08:10;1.50;99.90
40676;DHT22;26359;48.750;9.314;2024-01-10T10:10:35;1.40;99.90
40676;DHT22;26359;48.750;9.314;2024-01-10T10:13:01;1.40;99.90
40676;DHT22;26359;48.750;9.314;2024-01-10T10:15:27;1.50;99.90
40676;DHT22;26359;48.750;9.314;2024-01-10T10:17:53;1.40;99.90
40676;DHT22;26359;48.750;9.314;2024-01-10T10:23:07;1.50;99.90
40676;DHT22;26359;48.750;9.314;2024-01-10T10:25:45;1.70;99.90
40676;DHT22;26359;48.750;9.314;2024-01-10T10:28:11;1.70;99.90
40676;DHT22;26359;48.750;9.314;2024-01-10T10:30:37;1.30;99.90
40676;DHT22;26359;48.750;9.314;2024-01-10T10:33:03;1.60;99.90
40676;DHT22;26359;48.750;9.314;2024-01-10T10:35:29;1.80;99.90
40676;DHT22;26359;48.750;9.314;2024-01-10T10:37:54;2.00;99.90
40676;DHT22;26359;48.750;9.314;2024-01-10T10:40:21;2.10;99.90
40676;DHT22;26359;48.750;9.314;2024-01-10T10:42:48;2.20;99.90
40676;DHT22;26359;48.750;9.314;2024-01-10T10:45:15;2.60;99.90
40676;DHT22;26359;48.750;9.314;2024-01-10T10:47:43;2.90;99.90
40676;DHT22;26359;48.750;9.314;2024-01-10T10:50:13;2.90;99.90
40676;DHT22;26359;48.750;9.314;2024-01-10T10:52:45;2.90;99.90
40676;DHT22;26359;48.750;9.314;2024-01-10T10:55:17;3.00;99.90
40676;DHT22;26359;48.750;9.314;2024-01-10T10:57:47;2.90;99.90
40676;DHT22;26359;48.750;9.314;2024-01-10T11:00:14;2.80;99.90
40676;DHT22;26359;48.750;9.314;2024-01-10T11:02:44;3.00;99.90
40676;DHT22;26359;48.750;9.314;2024-01-10T11:05:12;3.30;99.90
40676;DHT22;26359;48.750;9.314;2024-01-10T11:07:42;3.30;99.90
40676;DHT22;26359;48.750;9.314;2024-01-10T11:10:19;3.50;99.90
40676;DHT22;26359;48.750;9.314;2024-01-10T11:18:27;3.30;99.90
40676;DHT22;26359;48.750;9.314;2024-01-10T11:21:16;3.10;99.90
40676;DHT22;26359;48.750;9.314;2024-01-10T11:23:45;3.20;99.90
40676;DHT22;26359;48.750;9.314;2024-01-10T11:26:15;3.40;99.90
40676;DHT22;26359;48.750;9.314;2024-01-10T11:28:41;2.60;99.90
40676;DHT22;26359;48.750;9.314;2024-01-10T11:31:07;3.10;99.90
40676;DHT22;26359;48.750;9.314;2024-01-10T11:33:39;3.40;99.90
40676;DHT22;26359;48.750;9.314;2024-01-10T11:36:18;3.30;99.90
40676;DHT22;26359;48.750;9.314;2024-01-10T11:38:55;3.30;99.90
40676;DHT22;26359;48.750;9.314;2024-01-10T11:41:33;3.10;99.90
40676;DHT22;26359;48.750;9.314;2024-01-10T11:46:46;2.70;99.90
40676;DHT22;26359;48.750;9.314;2024-01-10T11:49:14;2.80;99.90
40676;DHT22;26359;48.750;9.314;2024-01-10T11:51:47;2.90;99.90
40676;DHT22;26359;48.750;9.314;2024-01-10T11:54:39;3.10;99.90
40676;DHT22;26359;48.750;9.314;2024-01-10T11:57:28;3.30;99.90
40676;DHT22;26359;48.750;9.314;2024-01-10T11:59:55;3.10;99.90
40676;DHT22;26359;48.750;9.314;2024-01-10T12:02:24;3.00;99.90
40676;DHT22;26359;48.750;9.314;2024-01-10T12:04:51;2.80;99.90
40676;DHT22;26359;48.750;9.314;2024-01-10T12:07:18;3.20;99.90
40676;DHT22;26359;48.750;9.314;2024-01-10T12:09:44;3.40;99.90
40676;DHT22;26359;48.750;9.314;2024-01-10T12:12:10;3.50;99.90
40676;DHT22;26359;48.750;9.314;2024-01-10T12:14:36;3.80;99.90
40676;DHT22;26359;48.750;9.314;2024-01-10T12:17:02;4.00;99.90
40676;DHT22;26359;48.750;9.314;2024-01-10T12:19:30;4.10;99.90
40676;DHT22;26359;48.750;9.314;2024-01-10T12:21:55;3.70;99.90
40676;DHT22;26359;48.750;9.314;2024-01-10T12:24:21;3.80;99.90
40676;DHT22;26359;48.750;9.314;2024-01-10T12:26:48;3.90;99.90
40676;DHT22;26359;48.750;9.314;2024-01-10T12:29:17;4.20;99.90
40676;DHT22;26359;48.750;9.314;2024-01-10T12:31:43;4.10;99.90
40676;DHT22;26359;48.750;9.314;2024-01-10T12:34:10;4.50;99.90
40676;DHT22;26359;48.750;9.314;2024-01-10T12:36:36;4.50;99.90
40676;DHT22;26359;48.750;9.314;2024-01-10T12:39:02;4.40;99.90
40676;DHT22;26359;48.750;9.314;2024-01-10T12:41:28;4.30;99.90
40676;DHT22;26359;48.750;9.314;2024-01-10T12:43:54;4.40;99.90
40676;DHT22;26359;48.750;9.314;2024-01-10T12:46:23;4.40;99.90
40676;DHT22;26359;48.750;9.314;2024-01-10T12:49:07;4.30;99.90
40676;DHT22;26359;48.750;9.314;2024-01-10T12:51:33;4.00;99.90
40676;DHT22;26359;48.750;9.314;2024-01-10T12:54:01;3.70;99.90
40676;DHT22;26359;48.750;9.314;2024-01-10T12:56:28;3.80;99.90
40676;DHT22;26359;48.750;9.314;2024-01-10T12:58:54;3.80;99.90
40676;DHT22;26359;48.750;9.314;2024-01-10T13:01:23;3.80;99.90
40676;DHT22;26359;48.750;9.314;2024-01-10T13:03:48;2.90;99.90
40676;DHT22;26359;48.750;9.314;2024-01-10T13:06:14;2.90;99.90
40676;DHT22;26359;48.750;9.314;2024-01-10T13:08:41;2.60;99.90
40676;DHT22;26359;48.750;9.314;2024-01-10T13:11:07;2.80;99.90
40676;DHT22;26359;48.750;9.314;2024-01-10T13:13:35;3.00;99.90
40676;DHT22;26359;48.750;9.314;2024-01-10T13:16:01;3.10;99.90
40676;DHT22;26359;48.750;9.314;2024-01-10T13:18:27;3.20;99.90
40676;DHT22;26359;48.750;9.314;2024-01-10T13:20:54;3.20;99.90
40676;DHT22;26359;48.750;9.314;2024-01-10T13:23:20;3.40;99.90
40676;DHT22;26359;48.750;9.314;2024-01-10T13:25:48;3.40;99.90
40676;DHT22;26359;48.750;9.314;2024-01-10T13:28:14;3.50;99.90
40676;DHT22;26359;48.750;9.314;2024-01-10T13:30:41;3.60;99.90
40676;DHT22;26359;48.750;9.314;2024-01-10T13:33:08;3.50;99.90
40676;DHT22;26359;48.750;9.314;2024-01-10T13:35:37;3.70;99.90
40676;DHT22;26359;48.750;9.314;2024-01-10T13:38:04;3.90;99.90
40676;DHT22;26359;48.750;9.314;2024-01-10T13:40:30;3.90;99.90
40676;DHT22;26359;48.750;9.314;2024-01-10T13:42:57;3.80;99.90
40676;DHT22;26359;48.750;9.314;2024-01-10T13:45:23;3.40;99.90
40676;DHT22;26359;48.750;9.314;2024-01-10T13:47:48;3.20;99.90
40676;DHT22;26359;48.750;9.314;2024-01-10T13:50:15;3.30;99.90
40676;DHT22;26359;48.750;9.314;2024-01-10T13:52:40;3.60;99.90
40676;DHT22;26359;48.750;9.314;2024-01-10T13:55:06;3.60;99.90
40676;DHT22;26359;48.750;9.314;2024-01-10T13:57:32;3.60;99.90
40676;DHT22;26359;48.750;9.314;2024-01-10T13:59:58;3.60;99.90
40676;DHT22;26359;48.750;9.314;2024-01-10T14:02:24;3.60;99.90
40676;DHT22;26359;48.750;9.314;2024-01-10T14:04:50;3.50;99.90
40676;DHT22;26359;48.750;9.314;2024-01-10T14:07:16;3.40;99.90
40676;DHT22;26359;48.750;9.314;2024-01-10T14:09:41;3.60;99.90
40676;DHT22;26359;48.750;9.314;2024-01-10T14:12:07;3.60;99.90
40676;DHT22;26359;48.750;9.314;2024-01-10T14:14:32;3.70;99.90
40676;DHT22;26359;48.750;9.314;2024-01-10T14:16:58;3.50;99.90
40676;DHT22;26359;48.750;9.314;2024-01-10T14:19:23;3.60;99.90
40676;DHT22;26359;48.750;9.314;2024-01-10T14:21:49;3.50;99.90
40676;DHT22;26359;48.750;9.314;2024-01-10T14:24:15;3.30;99.90
40676;DHT22;26359;48.750;9.314;2024-01-10T14:26:41;3.30;99.90
40676;DHT22;26359;48.750;9.314;2024-01-10T14:29:07;3.30;99.90
40676;DHT22;26359;48.750;9.314;2024-01-10T14:31:32;3.20;99.90
40676;DHT22;26359;48.750;9.314;2024-01-10T14:33:58;3.00;99.90
40676;DHT22;26359;48.750;9.314;2024-01-10T14:36:23;2.80;99.90
40676;DHT22;26359;48.750;9.314;2024-01-10T14:38:49;2.60;99.90
40676;DHT22;26359;48.750;9.314;2024-01-10T14:41:16;2.40;99.90
40676;DHT22;26359;48.750;9.314;2024-01-10T14:43:41;2.30;99.90
40676;DHT22;26359;48.750;9.314;2024-01-10T14:46:07;2.30;99.90
40676;DHT22;26359;48.750;9.314;2024-01-10T14:48:32;2.20;99.90
40676;DHT22;26359;48.750;9.314;2024-01-10T14:51:00;2.20;99.90
40676;DHT22;26359;48.750;9.314;2024-01-10T14:53:26;2.10;99.90
40676;DHT22;26359;48.750;9.314;2024-01-10T14:55:52;2.00;99.90
40676;DHT22;26359;48.750;9.314;2024-01-10T14:58:17;1.90;99.90
40676;DHT22;26359;48.750;9.314;2024-01-10T15:00:44;1.90;99.90
40676;DHT22;26359;48.750;9.314;2024-01-10T15:03:09;1.90;99.90
40676;DHT22;26359;48.750;9.314;2024-01-10T15:05:36;1.80;99.90
40676;DHT22;26359;48.750;9.314;2024-01-10T15:08:02;1.80;99.90
40676;DHT22;26359;48.750;9.314;2024-01-10T15:10:27;1.70;99.90
40676;DHT22;26359;48.750;9.314;2024-01-10T15:12:53;1.60;99.90
40676;DHT22;26359;48.750;9.314;2024-01-10T15:15:19;1.50;99.90
40676;DHT22;26359;48.750;9.314;2024-01-10T15:17:45;1.50;99.90
40676;DHT22;26359;48.750;9.314;2024-01-10T15:20:10;1.50;99.90
40676;DHT22;26359;48.750;9.314;2024-01-10T15:22:36;1.50;99.90
40676;DHT22;26359;48.750;9.314;2024-01-10T15:25:04;1.50;99.90
40676;DHT22;26359;48.750;9.314;2024-01-10T15:27:30;1.50;99.90
40676;DHT22;26359;48.750;9.314;2024-01-10T15:29:56;1.60;99.90
40676;DHT22;26359;48.750;9.314;2024-01-10T15:32:21;1.50;99.90
40676;DHT22;26359;48.750;9.314;2024-01-10T15:34:47;1.40;99.90
40676;DHT22;26359;48.750;9.314;2024-01-10T15:37:13;1.40;99.90
40676;DHT22;26359;48.750;9.314;2024-01-10T15:39:40;1.40;99.90
40676;DHT22;26359;48.750;9.314;2024-01-10T15:42:05;1.30;99.90
40676;DHT22;26359;48.750;9.314;2024-01-10T15:44:31;1.20;99.90